createdAt,value
2018-07-21T00:02:08.977Z,58.62
2018-07-21T00:04:37.058Z,58.87
2018-07-21T00:07:05.148Z,58.01
2018-07-21T00:09:33.154Z,58.19
2018-07-21T00:12:01.120Z,58.50
2018-07-21T00:14:29.227Z,58.93
2018-07-21T00:16:57.245Z,58.96
2018-07-21T00:19:25.532Z,59.16
2018-07-21T00:21:53.515Z,58.67
2018-07-21T00:24:21.455Z,58.73
2018-07-21T00:26:49.781Z,59.44
2018-07-21T00:29:19.333Z,59.62
2018-07-21T00:31:47.386Z,59.34
2018-07-21T00:34:15.353Z,59.97
2018-07-21T00:36:43.436Z,59.68
2018-07-21T00:39:14.201Z,60.28
2018-07-21T00:41:42.324Z,59.69
2018-07-21T00:44:10.413Z,60.16
2018-07-21T00:46:38.429Z,59.83
2018-07-21T00:49:06.843Z,60.30
2018-07-21T00:51:35.082Z,60.31
2018-07-21T00:54:03.013Z,59.81
2018-07-21T00:56:31.642Z,59.83
2018-07-21T00:58:59.536Z,59.91
2018-07-21T01:01:27.461Z,60.62
2018-07-21T01:03:55.585Z,60.50
2018-07-21T01:06:23.619Z,60.25
2018-07-21T01:08:51.639Z,60.75
2018-07-21T01:11:19.636Z,60.91
2018-07-21T01:13:47.751Z,60.59
2018-07-21T01:16:15.824Z,60.64
2018-07-21T01:18:43.973Z,59.87
2018-07-21T01:21:12.343Z,59.75
2018-07-21T01:23:40.438Z,59.80
2018-07-21T01:26:08.425Z,59.30
2018-07-21T01:28:36.465Z,59.13
2018-07-21T01:31:04.429Z,59.51
2018-07-21T01:33:32.453Z,59.15
2018-07-21T01:36:00.345Z,59.72
2018-07-21T01:38:28.326Z,59.72
2018-07-21T01:40:56.356Z,59.59
2018-07-21T01:43:24.409Z,59.42
2018-07-21T01:45:52.490Z,59.82
2018-07-21T01:48:20.499Z,59.55
2018-07-21T01:50:48.532Z,59.46
2018-07-21T01:53:16.751Z,59.58
2018-07-21T01:55:44.729Z,59.78
2018-07-21T01:58:12.707Z,59.62
2018-07-21T02:00:40.840Z,59.21
2018-07-21T02:03:08.788Z,58.98
2018-07-21T02:05:36.802Z,58.81
2018-07-21T02:08:04.987Z,59.48
2018-07-21T02:10:32.941Z,59.30
2018-07-21T02:13:01.032Z,59.20
2018-07-21T02:15:29.014Z,59.00
2018-07-21T02:17:57.066Z,59.05
2018-07-21T02:20:25.112Z,59.32
2018-07-21T02:22:53.137Z,59.92
2018-07-21T02:25:21.150Z,60.16
2018-07-21T02:27:49.176Z,60.08
2018-07-21T02:30:17.236Z,60.52
2018-07-21T02:32:45.399Z,60.50
2018-07-21T02:35:13.349Z,60.35
2018-07-21T02:37:41.353Z,61.27
2018-07-21T02:40:09.414Z,61.37
2018-07-21T02:42:37.353Z,61.96
2018-07-21T02:45:05.330Z,61.35
2018-07-21T02:47:33.530Z,61.51
2018-07-21T02:50:01.553Z,61.21
2018-07-21T02:52:29.468Z,60.56
2018-07-21T02:54:57.427Z,60.07
2018-07-21T02:57:25.453Z,59.51
2018-07-21T02:59:53.472Z,58.31
2018-07-21T03:02:21.461Z,57.80
2018-07-21T03:04:49.494Z,56.43
2018-07-21T03:07:17.580Z,55.94
2018-07-21T03:09:45.758Z,56.23
2018-07-21T03:12:13.750Z,56.15
2018-07-21T03:14:41.831Z,55.21
2018-07-21T03:17:09.881Z,55.36
2018-07-21T03:19:37.929Z,54.91
2018-07-21T03:22:05.944Z,54.58
2018-07-21T03:24:33.896Z,54.45
2018-07-21T03:27:01.985Z,53.91
2018-07-21T03:29:30.036Z,53.47
2018-07-21T03:31:58.097Z,54.37
2018-07-21T03:34:26.059Z,53.56
2018-07-21T03:36:54.160Z,54.03
2018-07-21T03:39:22.133Z,53.56
2018-07-21T03:41:50.736Z,53.50
2018-07-21T03:44:18.756Z,53.93
2018-07-21T03:46:46.870Z,52.16
2018-07-21T03:49:15.070Z,52.59
2018-07-21T03:51:43.058Z,52.69
2018-07-21T03:54:11.037Z,51.97
2018-07-21T03:56:39.112Z,51.85
2018-07-21T03:59:07.030Z,51.50
2018-07-21T04:01:35.015Z,51.00
2018-07-21T04:04:03.015Z,50.45
2018-07-21T04:06:31.324Z,51.02
2018-07-21T04:08:59.420Z,50.80
2018-07-21T04:11:27.568Z,50.42
2018-07-21T04:13:55.639Z,50.71
2018-07-21T04:16:23.761Z,50.07
2018-07-21T04:18:51.706Z,49.85
2018-07-21T04:21:19.817Z,50.50
2018-07-21T04:23:48.067Z,50.04
2018-07-21T04:26:16.040Z,50.58
2018-07-21T04:28:44.131Z,49.59
2018-07-21T04:31:12.184Z,50.32
2018-07-21T04:33:40.152Z,50.44
2018-07-21T04:36:08.119Z,49.61
2018-07-21T04:38:36.184Z,50.32
2018-07-21T04:41:04.297Z,50.50
2018-07-21T04:43:32.274Z,50.74
2018-07-21T04:46:00.321Z,50.38
2018-07-21T04:48:29.785Z,50.76
2018-07-21T04:50:58.032Z,50.17
2018-07-21T04:53:26.063Z,50.42
2018-07-21T04:55:54.109Z,50.99
2018-07-21T04:58:22.145Z,50.96
2018-07-21T05:00:50.206Z,50.39
2018-07-21T05:03:18.182Z,49.83
2018-07-21T05:05:46.241Z,50.00
2018-07-21T05:08:14.186Z,49.93
2018-07-21T05:10:42.182Z,49.80
2018-07-21T05:13:10.264Z,48.96
2018-07-21T05:15:38.184Z,49.33
2018-07-21T05:18:05.915Z,49.67
2018-07-21T05:20:33.975Z,49.33
2018-07-21T05:23:02.222Z,49.48
2018-07-21T05:25:30.250Z,49.11
2018-07-21T05:27:58.275Z,50.06
2018-07-21T05:30:26.280Z,49.90
2018-07-21T05:32:54.277Z,49.93
2018-07-21T05:35:22.456Z,50.29
2018-07-21T05:37:51.661Z,49.71
2018-07-21T05:40:19.847Z,49.15
2018-07-21T05:42:48.046Z,49.34
2018-07-21T05:45:16.035Z,49.44
2018-07-21T05:47:44.192Z,49.17
2018-07-21T05:50:12.324Z,49.72
2018-07-21T05:52:42.802Z,49.52
2018-07-21T05:55:10.818Z,49.20
2018-07-21T05:57:38.849Z,49.37
2018-07-21T06:00:10.129Z,48.40
2018-07-21T06:02:38.245Z,49.17
2018-07-21T06:05:06.426Z,48.60
2018-07-21T06:07:34.560Z,49.32
2018-07-21T06:10:02.595Z,47.84
2018-07-21T06:12:30.536Z,48.30
2018-07-21T06:14:58.531Z,48.69
2018-07-21T06:17:26.546Z,48.29
2018-07-21T06:19:54.695Z,48.98
2018-07-21T06:22:22.735Z,49.28
2018-07-21T06:24:50.691Z,49.14
2018-07-21T06:27:18.643Z,48.65
2018-07-21T06:29:46.689Z,49.34
2018-07-21T06:32:14.814Z,49.54
2018-07-21T06:34:42.904Z,48.98
2018-07-21T06:37:10.885Z,49.10
2018-07-21T06:39:38.919Z,49.56
2018-07-21T06:42:06.977Z,49.33
2018-07-21T06:44:34.953Z,49.61
2018-07-21T06:47:06.759Z,49.45
2018-07-21T06:49:34.780Z,49.32
2018-07-21T06:52:02.907Z,49.80
2018-07-21T06:54:30.876Z,48.75
2018-07-21T06:57:03.494Z,49.29
2018-07-21T06:59:31.550Z,48.47
2018-07-21T07:01:59.594Z,48.69
2018-07-21T07:04:27.658Z,48.22
2018-07-21T07:06:56.684Z,48.77
2018-07-21T07:09:24.934Z,48.37
2018-07-21T07:11:53.007Z,48.15
2018-07-21T07:14:21.921Z,48.10
2018-07-21T07:16:49.889Z,47.95
2018-07-21T07:19:17.919Z,48.20
2018-07-21T07:21:45.996Z,48.50
2018-07-21T07:24:13.956Z,47.98
2018-07-21T07:26:42.061Z,48.92
2018-07-21T07:29:10.448Z,48.74
2018-07-21T07:31:38.522Z,48.87
2018-07-21T07:34:06.662Z,49.16
2018-07-21T07:36:34.901Z,48.41
2018-07-21T07:39:03.244Z,48.43
2018-07-21T07:41:31.195Z,49.76
2018-07-21T07:43:59.150Z,48.42
2018-07-21T07:46:27.142Z,49.58
2018-07-21T07:48:55.104Z,48.66
2018-07-21T07:51:23.192Z,47.69
2018-07-21T07:53:51.673Z,49.00
2018-07-21T07:56:22.872Z,48.87
2018-07-21T07:58:50.798Z,48.83
2018-07-21T08:01:19.169Z,49.50
2018-07-21T08:03:47.164Z,48.27
2018-07-21T08:06:15.277Z,48.45
2018-07-21T08:08:44.304Z,47.88
2018-07-21T08:11:12.305Z,48.25
2018-07-21T08:13:40.345Z,49.07
2018-07-21T08:16:08.279Z,47.44
2018-07-21T08:18:36.517Z,47.34
2018-07-21T08:21:04.520Z,47.37
2018-07-21T08:23:32.602Z,47.48
2018-07-21T08:26:00.646Z,47.25
2018-07-21T08:28:28.762Z,47.29
2018-07-21T08:30:57.011Z,48.51
2018-07-21T08:33:24.986Z,48.43
2018-07-21T08:35:53.025Z,48.14
2018-07-21T08:38:21.305Z,48.34
2018-07-21T08:40:49.369Z,48.69
2018-07-21T08:43:17.406Z,48.57
2018-07-21T08:45:45.417Z,49.17
2018-07-21T08:48:13.561Z,48.20
2018-07-21T08:50:41.653Z,49.20
2018-07-21T08:53:09.719Z,49.01
2018-07-21T08:55:37.949Z,48.57
2018-07-21T08:58:06.032Z,47.63
2018-07-21T09:00:34.074Z,48.09
2018-07-21T09:03:02.131Z,47.98
2018-07-21T09:05:30.296Z,48.21
2018-07-21T09:07:58.401Z,47.16
2018-07-21T09:10:26.459Z,48.18
2018-07-21T09:12:54.634Z,48.22
2018-07-21T09:15:22.763Z,47.74
2018-07-21T09:17:51.010Z,48.03
2018-07-21T09:20:19.102Z,46.30
2018-07-21T09:22:47.161Z,46.15
2018-07-21T09:25:15.315Z,46.80
2018-07-21T09:27:43.360Z,46.71
2018-07-21T09:30:11.354Z,46.41
2018-07-21T09:32:39.344Z,46.70
2018-07-21T09:35:07.403Z,46.82
2018-07-21T09:37:35.420Z,46.53
2018-07-21T09:40:03.740Z,46.25
2018-07-21T09:42:31.774Z,47.40
2018-07-21T09:44:59.823Z,45.83
2018-07-21T09:47:27.783Z,46.24
2018-07-21T09:49:56.486Z,45.93
2018-07-21T09:52:24.518Z,45.73
2018-07-21T09:54:52.623Z,45.84
2018-07-21T09:57:20.624Z,44.46
2018-07-21T09:59:48.698Z,45.15
2018-07-21T10:02:17.480Z,44.17
2018-07-21T10:04:45.778Z,44.30
2018-07-21T10:07:14.838Z,44.23
2018-07-21T10:09:44.245Z,44.40
2018-07-21T10:12:13.474Z,43.95
2018-07-21T10:14:41.781Z,43.48
2018-07-21T10:17:10.433Z,43.39
2018-07-21T10:19:39.265Z,42.91
2018-07-21T10:22:10.085Z,43.24
2018-07-21T10:24:43.777Z,44.01
2018-07-21T10:27:14.383Z,43.90
2018-07-21T10:29:42.523Z,41.82
2018-07-21T10:32:10.959Z,42.67
2018-07-21T10:34:39.994Z,42.67
2018-07-21T10:37:08.482Z,43.29
2018-07-21T10:39:37.186Z,42.58
2018-07-21T10:42:05.520Z,43.03
2018-07-21T10:44:33.660Z,42.30
2018-07-21T10:47:01.709Z,42.62
2018-07-21T10:49:30.238Z,42.69
2018-07-21T10:51:59.025Z,42.14
2018-07-21T10:54:27.534Z,41.60
2018-07-21T10:56:56.494Z,41.64
2018-07-21T10:59:24.533Z,41.81
2018-07-21T11:01:53.014Z,42.44
2018-07-21T11:04:21.103Z,40.91
2018-07-21T11:06:49.993Z,41.09
2018-07-21T11:09:19.195Z,40.55
2018-07-21T11:11:47.212Z,40.65
2018-07-21T11:14:15.312Z,41.24
2018-07-21T11:16:45.705Z,41.79
2018-07-21T11:19:14.791Z,41.24
2018-07-21T11:21:42.797Z,41.55
2018-07-21T11:24:10.889Z,41.26
2018-07-21T11:26:40.225Z,41.61
2018-07-21T11:29:08.412Z,40.44
2018-07-21T11:31:39.330Z,41.58
2018-07-21T11:34:07.430Z,40.97
2018-07-21T11:36:35.546Z,40.01
2018-07-21T11:39:04.333Z,40.38
2018-07-21T11:41:32.956Z,39.82
2018-07-21T11:44:01.465Z,41.27
2018-07-21T11:46:30.276Z,40.46
2018-07-21T11:48:59.852Z,39.75
2018-07-21T11:51:27.926Z,40.40
2018-07-21T11:53:56.088Z,40.69
2018-07-21T11:56:24.287Z,41.76
2018-07-21T11:58:52.345Z,41.02
2018-07-21T12:01:20.824Z,39.98
2018-07-21T12:03:49.331Z,41.92
2018-07-21T12:06:17.871Z,42.30
2018-07-21T12:08:45.896Z,42.92
2018-07-21T12:11:14.663Z,41.54
2018-07-21T12:13:43.237Z,39.92
2018-07-21T12:16:11.657Z,39.50
2018-07-21T12:18:39.700Z,39.80
2018-07-21T12:21:07.718Z,39.48
2018-07-21T12:23:35.884Z,38.15
2018-07-21T12:26:04.016Z,39.45
2018-07-21T12:28:32.228Z,40.06
2018-07-21T12:31:00.317Z,40.51
2018-07-21T12:33:28.324Z,40.34
2018-07-21T12:35:56.370Z,41.85
2018-07-21T12:38:24.688Z,41.74
2018-07-21T12:40:52.838Z,41.98
2018-07-21T12:43:20.807Z,41.67
2018-07-21T12:45:49.512Z,39.83
2018-07-21T12:48:17.718Z,41.43
2018-07-21T12:50:46.098Z,40.09
2018-07-21T12:53:14.112Z,39.23
2018-07-21T12:55:42.306Z,38.51
2018-07-21T12:58:10.703Z,36.88
2018-07-21T13:00:38.718Z,36.07
2018-07-21T13:03:06.992Z,37.15
2018-07-21T13:05:35.098Z,37.93
2018-07-21T13:08:03.163Z,37.00
2018-07-21T13:10:31.511Z,35.95
2018-07-21T13:12:59.521Z,35.77
2018-07-21T13:15:27.642Z,36.20
2018-07-21T13:17:56.380Z,36.28
2018-07-21T13:20:24.370Z,36.35
2018-07-21T13:22:52.518Z,36.15
2018-07-21T13:25:21.906Z,37.41
2018-07-21T13:27:49.959Z,37.11
2018-07-21T13:30:17.991Z,36.98
2018-07-21T13:32:46.818Z,36.13
2018-07-21T13:35:15.030Z,37.71
2018-07-21T13:37:43.325Z,36.62
2018-07-21T13:40:12.663Z,36.06
2018-07-21T13:42:42.421Z,35.91
2018-07-21T13:45:10.563Z,36.38
2018-07-21T13:47:38.962Z,35.67
2018-07-21T13:50:07.013Z,36.22
2018-07-21T13:52:35.800Z,37.03
2018-07-21T13:55:04.123Z,38.27
2018-07-21T13:57:32.474Z,37.38
2018-07-21T14:00:00.777Z,34.93
2018-07-21T14:02:28.787Z,36.24
2018-07-21T14:04:56.871Z,35.47
2018-07-21T14:07:24.891Z,35.82
2018-07-21T14:09:53.564Z,36.27
2018-07-21T14:12:22.291Z,38.09
2018-07-21T14:14:50.346Z,37.07
2018-07-21T14:17:19.556Z,37.13
2018-07-21T14:19:47.543Z,36.78
2018-07-21T14:22:15.995Z,37.27
2018-07-21T14:24:44.136Z,37.03
2018-07-21T14:27:12.211Z,37.46
2018-07-21T14:29:40.406Z,37.84
2018-07-21T14:32:08.361Z,37.66
2018-07-21T14:34:36.537Z,37.17
2018-07-21T14:37:05.019Z,35.69
2018-07-21T14:39:33.169Z,36.61
2018-07-21T14:42:01.247Z,37.00
2018-07-21T14:44:29.372Z,37.83
2018-07-21T14:46:57.368Z,37.88
2018-07-21T14:49:25.384Z,37.18
2018-07-21T14:51:53.570Z,37.53
2018-07-21T14:54:21.812Z,36.79
2018-07-21T14:56:49.899Z,36.32
2018-07-21T14:59:17.928Z,37.34
2018-07-21T15:01:46.401Z,36.75
2018-07-21T15:04:14.399Z,36.66
2018-07-21T15:06:42.569Z,36.48
2018-07-21T15:09:11.784Z,36.58
2018-07-21T15:11:40.017Z,37.19
2018-07-21T15:14:08.292Z,37.36
2018-07-21T15:16:38.391Z,37.22
2018-07-21T15:19:07.415Z,37.28
2018-07-21T15:21:35.543Z,37.37
2018-07-21T15:24:04.207Z,37.16
2018-07-21T15:26:33.943Z,37.38
2018-07-21T15:29:02.254Z,38.01
2018-07-21T15:31:31.073Z,37.86
2018-07-21T15:33:59.333Z,37.91
2018-07-21T15:36:27.353Z,38.04
2018-07-21T15:38:56.063Z,37.58
2018-07-21T15:41:24.163Z,36.70
2018-07-21T15:43:52.866Z,38.02
2018-07-21T15:46:21.139Z,38.24
2018-07-21T15:48:49.973Z,37.56
2018-07-21T15:51:18.093Z,37.92
2018-07-21T15:53:46.416Z,38.52
2018-07-21T15:56:15.549Z,38.67
2018-07-21T15:58:43.666Z,38.38
2018-07-21T16:01:13.247Z,37.90
2018-07-21T16:03:41.391Z,38.50
2018-07-21T16:06:09.603Z,38.47
2018-07-21T16:08:38.519Z,39.08
2018-07-21T16:11:07.448Z,37.84
2018-07-21T16:13:36.421Z,37.92
2018-07-21T16:16:04.951Z,37.82
2018-07-21T16:18:34.224Z,38.14
2018-07-21T16:21:03.563Z,38.71
2018-07-21T16:23:31.735Z,38.20
2018-07-21T16:25:59.994Z,38.11
2018-07-21T16:28:28.153Z,37.93
2018-07-21T16:30:56.206Z,37.48
2018-07-21T16:33:24.439Z,37.86
2018-07-21T16:35:52.921Z,38.30
2018-07-21T16:38:21.058Z,38.42
2018-07-21T16:40:49.255Z,39.53
2018-07-21T16:43:18.121Z,39.89
2018-07-21T16:45:46.216Z,40.74
2018-07-21T16:48:17.814Z,42.10
2018-07-21T16:50:46.422Z,42.98
2018-07-21T16:53:14.750Z,43.48
2018-07-21T16:55:42.851Z,42.98
2018-07-21T16:58:11.389Z,43.60
2018-07-21T17:00:39.941Z,43.94
2018-07-21T17:03:08.193Z,45.13
2018-07-21T17:05:36.287Z,44.37
2018-07-21T17:08:04.605Z,45.43
2018-07-21T17:10:33.304Z,45.25
2018-07-21T17:13:01.279Z,46.03
2018-07-21T17:15:29.380Z,46.01
2018-07-21T17:17:57.355Z,46.82
2018-07-21T17:20:25.532Z,47.08
2018-07-21T17:22:53.506Z,47.07
2018-07-21T17:25:21.567Z,47.42
2018-07-21T17:27:49.664Z,46.99
2018-07-21T17:30:17.632Z,47.75
2018-07-21T17:32:45.709Z,47.47
2018-07-21T17:35:14.931Z,47.87
2018-07-21T17:37:42.974Z,48.74
2018-07-21T17:40:10.995Z,48.74
2018-07-21T17:42:39.109Z,49.41
2018-07-21T17:45:07.477Z,49.57
2018-07-21T17:47:35.679Z,49.86
2018-07-21T17:50:03.798Z,49.64
2018-07-21T17:52:32.383Z,50.35
2018-07-21T17:55:00.466Z,50.51
2018-07-21T17:57:28.426Z,51.50
2018-07-21T17:59:56.443Z,52.14
2018-07-21T18:02:24.516Z,52.88
2018-07-21T18:04:52.521Z,53.15
2018-07-21T18:07:20.652Z,54.29
2018-07-21T18:09:48.712Z,54.33
2018-07-21T18:12:16.778Z,55.02
2018-07-21T18:14:44.768Z,56.02
2018-07-21T18:17:12.765Z,55.98
2018-07-21T18:19:40.703Z,56.46
2018-07-21T18:22:08.774Z,57.45
2018-07-21T18:24:36.820Z,57.98
2018-07-21T18:27:04.867Z,57.70
2018-07-21T18:29:32.958Z,59.21
2018-07-21T18:32:00.986Z,58.61
2018-07-21T18:34:29.009Z,58.39
2018-07-21T18:36:58.230Z,59.51
2018-07-21T18:39:26.261Z,59.74
2018-07-21T18:41:54.278Z,60.40
2018-07-21T18:44:22.263Z,60.38
2018-07-21T18:46:50.288Z,59.81
2018-07-21T18:49:18.742Z,61.15
2018-07-21T18:51:46.875Z,61.09
2018-07-21T18:54:14.929Z,61.52
2018-07-21T18:56:44.058Z,61.03
2018-07-21T18:59:12.167Z,62.40
2018-07-21T19:01:40.252Z,61.74
2018-07-21T19:04:08.221Z,61.57
2018-07-21T19:06:36.299Z,62.09
2018-07-21T19:09:07.369Z,61.58
2018-07-21T19:11:35.328Z,61.55
2018-07-21T19:14:03.577Z,60.15
2018-07-21T19:16:40.121Z,60.45
2018-07-21T19:19:08.285Z,60.10
2018-07-21T19:21:36.313Z,60.37
2018-07-21T19:24:04.550Z,60.03
2018-07-21T19:26:38.122Z,61.16
2018-07-21T19:29:06.194Z,61.13
2018-07-21T19:31:34.089Z,61.13
2018-07-21T19:34:02.202Z,59.73
2018-07-21T19:36:30.175Z,61.09
2018-07-21T19:38:58.276Z,59.74
2018-07-21T19:41:31.604Z,59.95
2018-07-21T19:43:59.661Z,60.01
2018-07-21T19:46:27.679Z,60.31
2018-07-21T19:48:55.681Z,60.09
2018-07-21T19:51:23.692Z,60.07
2018-07-21T19:53:51.786Z,59.64
2018-07-21T19:56:19.827Z,60.65
2018-07-21T19:58:47.790Z,60.35
2018-07-21T20:01:15.832Z,60.40
2018-07-21T20:03:43.899Z,59.35
2018-07-21T20:06:11.923Z,59.58
2018-07-21T20:08:40.092Z,58.97
2018-07-21T20:11:08.301Z,59.82
2018-07-21T20:13:36.251Z,58.93
2018-07-21T20:16:04.296Z,59.14
2018-07-21T20:18:32.232Z,58.73
2018-07-21T20:21:00.470Z,58.33
2018-07-21T20:23:28.364Z,58.88
2018-07-21T20:25:56.411Z,59.06
2018-07-21T20:28:24.376Z,58.80
2018-07-21T20:30:52.650Z,59.61
2018-07-21T20:33:20.740Z,58.98
2018-07-21T20:35:48.722Z,58.77
2018-07-21T20:38:16.826Z,58.12
2018-07-21T20:40:44.929Z,58.62
2018-07-21T20:43:13.031Z,59.61
2018-07-21T20:45:41.099Z,60.21
2018-07-21T20:48:09.426Z,59.61
2018-07-21T20:50:37.392Z,58.65
2018-07-21T20:53:05.562Z,59.55
2018-07-21T20:55:33.588Z,58.19
2018-07-21T20:58:02.243Z,59.39
2018-07-21T21:00:31.297Z,60.18
2018-07-21T21:02:59.520Z,60.55
2018-07-21T21:05:27.601Z,60.02
2018-07-21T21:07:55.758Z,60.44
2018-07-21T21:10:23.935Z,60.24
2018-07-21T21:12:52.635Z,60.45
2018-07-21T21:15:21.175Z,60.20
2018-07-21T21:17:49.509Z,60.56
2018-07-21T21:20:18.231Z,60.57
2018-07-21T21:22:48.268Z,60.39
2018-07-21T21:25:17.392Z,61.21
2018-07-21T21:27:46.552Z,60.94
2018-07-21T21:30:15.716Z,60.94
2018-07-21T21:32:44.527Z,61.57
2018-07-21T21:35:13.888Z,61.16
2018-07-21T21:37:42.674Z,60.90
2018-07-21T21:40:11.498Z,60.97
2018-07-21T21:42:39.635Z,60.90
2018-07-21T21:45:07.594Z,61.49
2018-07-21T21:47:35.606Z,61.75
2018-07-21T21:50:03.837Z,61.80
2018-07-21T21:52:32.007Z,62.17
2018-07-21T21:55:00.075Z,62.04
2018-07-21T21:57:28.187Z,62.21
2018-07-21T21:59:56.250Z,62.75
2018-07-21T22:02:24.294Z,63.68
2018-07-21T22:04:52.397Z,63.18
2018-07-21T22:07:20.467Z,64.43
2018-07-21T22:09:48.475Z,63.44
2018-07-21T22:12:16.373Z,63.22
2018-07-21T22:14:44.732Z,63.51
2018-07-21T22:17:13.738Z,63.62
2018-07-21T22:19:41.772Z,63.55
2018-07-21T22:22:09.814Z,63.22
2018-07-21T22:24:37.962Z,62.70
2018-07-21T22:27:06.179Z,62.55
2018-07-21T22:29:34.156Z,63.07
2018-07-21T22:32:02.208Z,62.72
2018-07-21T22:34:30.298Z,63.18
2018-07-21T22:36:58.390Z,63.58
2018-07-21T22:39:26.634Z,63.57
2018-07-21T22:41:54.686Z,63.87
2018-07-21T22:44:22.674Z,63.89
2018-07-21T22:46:50.692Z,63.54
2018-07-21T22:49:18.708Z,64.12
2018-07-21T22:51:46.686Z,64.18
2018-07-21T22:54:14.642Z,63.90
2018-07-21T22:56:42.672Z,64.21
2018-07-21T22:59:10.725Z,64.13
2018-07-21T23:01:39.256Z,64.51
2018-07-21T23:04:07.399Z,63.62
2018-07-21T23:06:35.361Z,64.84
2018-07-21T23:09:03.901Z,64.68
2018-07-21T23:11:32.031Z,64.85
2018-07-21T23:14:00.043Z,64.47
2018-07-21T23:16:28.015Z,64.46
2018-07-21T23:18:56.036Z,65.69
2018-07-21T23:21:24.032Z,64.62
2018-07-21T23:23:52.170Z,65.22
2018-07-21T23:26:20.208Z,65.27
2018-07-21T23:28:48.304Z,64.44
2018-07-21T23:31:16.290Z,63.12
2018-07-21T23:33:44.228Z,64.14
2018-07-21T23:36:12.199Z,64.94
2018-07-21T23:38:40.147Z,65.32
2018-07-21T23:41:08.163Z,65.68
2018-07-21T23:43:36.196Z,66.17
2018-07-21T23:46:04.317Z,66.12
2018-07-21T23:48:32.286Z,65.15
2018-07-21T23:51:00.299Z,65.35
2018-07-21T23:53:28.379Z,64.87
2018-07-21T23:55:56.600Z,65.62
2018-07-21T23:58:24.628Z,65.68
